Time;durP1;ratioP1;P1;durP2;ratioP2;P2;SDS_P1;SDS_P2;PMS_P1;PMS_P2;Temp;Humidity;BMP_temperature;BMP_pressure;BME280_temperature;BME280_humidity;BME280_pressure;Samples;Min_cycle;Max_cycle;Signal;HPM_P1;HPM_P2
2023/06/14 00:00:22;;;;;;;4.70;3.45;;;;;;;10.71;67.06;95613.91;2026088;29;20056;-57
2023/06/14 00:01:23;;;;;;;5.78;3.42;;;;;;;10.70;67.46;95611.41;2010577;29;20061;-58
2023/06/14 00:02:24;;;;;;;5.95;3.95;;;;;;;10.67;67.62;95612.41;2010556;29;20050;-57
2023/06/14 00:03:25;;;;;;;7.25;3.65;;;;;;;10.67;67.72;95614.19;2026343;29;20461;-57
2023/06/14 00:04:27;;;;;;;5.13;3.75;;;;;;;10.64;67.97;95612.59;2026090;29;20068;-57
2023/06/14 00:05:29;;;;;;;5.88;3.63;;;;;;;10.65;67.63;95622.03;2018013;29;20405;-57
2023/06/14 00:06:31;;;;;;;7.72;3.67;;;;;;;10.62;67.85;95614.44;2010482;29;20426;-57
2023/06/14 00:07:36;;;;;;;6.05;3.72;;;;;;;10.58;68.14;95612.91;2017755;29;20061;-57
2023/06/14 00:08:37;;;;;;;8.95;3.83;;;;;;;10.59;68.63;95622.38;2018176;29;20041;-57
2023/06/14 00:09:38;;;;;;;6.30;3.58;;;;;;;10.53;68.61;95613.16;2018295;29;20505;-57
2023/06/14 00:10:41;;;;;;;6.00;3.35;;;;;;;10.48;68.28;95603.94;2026533;29;20049;-57
2023/06/14 00:11:42;;;;;;;7.25;3.67;;;;;;;10.43;68.57;95598.16;2026438;29;20055;-57
2023/06/14 00:12:43;;;;;;;6.07;3.58;;;;;;;10.41;68.61;95600.00;2025816;29;20056;-58
2023/06/14 00:13:45;;;;;;;5.63;3.70;;;;;;;10.46;69.17;95608.38;2018131;29;20048;-57
2023/06/14 00:14:46;;;;;;;9.77;4.10;;;;;;;10.45;69.00;95620.53;2018308;29;20080;-57
2023/06/14 00:15:47;;;;;;;9.73;3.80;;;;;;;10.43;69.14;95611.13;2017748;29;20069;-57
2023/06/14 00:16:49;;;;;;;8.05;4.10;;;;;;;10.36;69.58;95601.06;2018129;29;20517;-56
2023/06/14 00:17:50;;;;;;;6.45;3.65;;;;;;;10.42;69.50;95612.03;2026017;29;20064;-57
2023/06/14 00:18:51;;;;;;;7.25;4.25;;;;;;;10.41;69.84;95615.56;2018171;29;20382;-57
2023/06/14 00:19:54;;;;;;;7.15;3.92;;;;;;;10.38;69.55;95611.38;2018026;29;20056;-57
2023/06/14 00:20:55;;;;;;;7.53;3.83;;;;;;;10.28;69.14;95595.44;2009710;29;20529;-57
2023/06/14 00:21:56;;;;;;;6.22;3.80;;;;;;;10.35;68.66;95608.94;2010660;29;20041;-57
2023/06/14 00:22:57;;;;;;;5.70;4.07;;;;;;;10.33;69.36;95610.75;2026558;29;20040;-57
2023/06/14 00:23:59;;;;;;;6.65;3.78;;;;;;;10.30;69.37;95611.75;2025920;29;20060;-57
2023/06/14 00:25:00;;;;;;;6.00;3.90;;;;;;;10.29;69.07;95611.84;2017604;29;20061;-58
2023/06/14 00:26:01;;;;;;;5.60;3.42;;;;;;;10.27;69.62;95614.53;2017516;29;20053;-57
2023/06/14 00:27:02;;;;;;;7.40;3.65;;;;;;;10.26;69.25;95614.56;2025717;29;20085;-57
2023/06/14 00:28:04;;;;;;;9.57;4.30;;;;;;;10.25;69.35;95607.69;2018184;29;20045;-57
2023/06/14 00:29:05;;;;;;;7.10;4.38;;;;;;;10.22;70.03;95611.28;2010120;29;20054;-57
2023/06/14 00:30:07;;;;;;;7.80;3.47;;;;;;;10.22;69.63;95615.66;2018038;29;20378;-57
2023/06/14 00:31:08;;;;;;;7.75;3.58;;;;;;;10.19;69.63;95611.47;2026113;29;20071;-57
2023/06/14 00:32:09;;;;;;;9.27;4.05;;;;;;;10.18;69.74;95601.97;2017691;29;20528;-57
2023/06/14 00:33:10;;;;;;;8.07;3.80;;;;;;;10.20;69.46;95607.09;2018066;29;20052;-58
2023/06/14 00:34:11;;;;;;;7.90;4.18;;;;;;;10.19;70.00;95610.63;2017876;29;20053;-57
2023/06/14 00:35:14;;;;;;;5.57;3.65;;;;;;;10.19;69.55;95608.03;2009292;29;20065;-57
2023/06/14 00:36:16;;;;;;;7.25;4.22;;;;;;;10.16;69.63;95612.44;2010293;29;20056;-57
2023/06/14 00:37:17;;;;;;;9.13;3.83;;;;;;;10.17;69.54;95610.69;2017796;29;20504;-57
2023/06/14 00:38:18;;;;;;;6.57;3.60;;;;;;;10.15;69.63;95610.75;2026202;29;20060;-57
2023/06/14 00:39:19;;;;;;;5.07;3.40;;;;;;;10.14;69.85;95609.09;2017754;29;20060;-57
2023/06/14 00:40:21;;;;;;;7.47;4.15;;;;;;;10.08;69.25;95600.81;2018014;29;20052;-58
2023/06/14 00:41:22;;;;;;;6.28;3.88;;;;;;;10.11;69.58;95611.00;2017683;29;20125;-57
2023/06/14 00:42:25;;;;;;;6.88;3.88;;;;;;;10.08;69.79;95606.81;2017856;29;20049;-57
2023/06/14 00:43:26;;;;;;;5.95;3.90;;;;;;;10.08;69.84;95608.59;2018128;29;20063;-58
2023/06/14 00:44:28;;;;;;;6.55;4.10;;;;;;;10.07;70.84;95612.91;2017678;29;20096;-57
2023/06/14 00:45:31;;;;;;;6.57;3.83;;;;;;;10.06;70.73;95611.25;2017662;29;20079;-57
2023/06/14 00:46:32;;;;;;;7.20;4.07;;;;;;;9.98;71.67;95594.41;2017291;29;20061;-59
2023/06/14 00:47:35;;;;;;;8.48;4.28;;;;;;;10.03;71.66;95608.81;2017247;29;20506;-58
2023/06/14 00:48:36;;;;;;;7.88;4.50;;;;;;;9.97;71.59;95598.75;2010368;29;20061;-58
2023/06/14 00:49:37;;;;;;;7.80;3.95;;;;;;;10.03;71.77;95610.56;2002719;29;20513;-58
2023/06/14 00:50:38;;;;;;;8.30;4.35;;;;;;;10.00;71.86;95613.31;2017955;29;20072;-58
2023/06/14 00:51:39;;;;;;;7.40;4.03;;;;;;;10.02;71.85;95614.91;2025708;29;20068;-58
2023/06/14 00:52:40;;;;;;;6.40;3.72;;;;;;;10.02;71.92;95616.66;2017705;29;20426;-58
2023/06/14 00:53:46;;;;;;;8.38;4.18;;;;;;;9.99;71.84;95609.88;2010267;29;20053;-58
2023/06/14 00:54:47;;;;;;;5.78;3.75;;;;;;;9.99;71.36;95611.63;2002869;29;20062;-58
2023/06/14 00:55:48;;;;;;;6.32;3.58;;;;;;;9.97;71.58;95618.66;2002618;29;20054;-58
2023/06/14 00:56:51;;;;;;;9.95;4.45;;;;;;;9.95;71.90;95613.56;2017917;29;20063;-58
2023/06/14 00:57:54;;;;;;;7.97;4.43;;;;;;;9.87;71.82;95598.38;2009863;29;20490;-58
2023/06/14 00:58:56;;;;;;;8.60;4.60;;;;;;;9.89;72.34;95609.53;1987308;29;20201;-58
2023/06/14 00:59:57;;;;;;;6.97;4.30;;;;;;;9.90;72.81;95616.38;1995187;29;20042;-58
2023/06/14 01:00:58;;;;;;;8.15;4.40;;;;;;;9.90;73.56;95620.72;2017107;29;20191;-58
2023/06/14 01:02:00;;;;;;;6.82;3.80;;;;;;;9.91;74.11;95612.00;2026014;29;20068;-58
2023/06/14 01:03:02;;;;;;;6.47;3.80;;;;;;;9.91;74.52;95606.81;2017413;29;20117;-58
2023/06/14 01:04:04;;;;;;;8.55;3.95;;;;;;;9.88;75.21;95607.81;2010168;29;20046;-58
2023/06/14 01:05:06;;;;;;;7.50;4.22;;;;;;;9.78;75.23;95603.19;2010020;29;20533;-58
2023/06/14 01:06:34;;;;;;;6.53;4.40;;;;;;;9.83;76.16;95620.19;2009968;29;20057;-58
2023/06/14 01:07:51;;;;;;;6.40;4.22;;;;;;;9.82;76.29;95615.09;2013388;29;20053;-58
2023/06/14 01:09:01;;;;;;;6.65;4.00;;;;;;;9.81;76.45;95622.03;2004131;29;20060;-58
2023/06/14 01:10:12;;;;;;;7.88;4.50;;;;;;;9.78;76.20;95619.56;2012992;29;20054;-59
2023/06/14 01:11:23;;;;;;;6.72;4.25;;;;;;;9.76;76.79;95621.41;2017615;29;20060;-58
2023/06/14 01:12:39;;;;;;;8.25;4.68;;;;;;;9.72;76.54;95612.94;1998580;29;20431;-58
2023/06/14 01:13:43;;;;;;;7.18;4.43;;;;;;;9.61;76.97;95596.25;1991266;29;20054;-58
2023/06/14 01:14:44;;;;;;;6.85;4.60;;;;;;;9.66;77.17;95610.66;1981129;29;20051;-58
2023/06/14 01:15:47;;;;;;;9.30;4.75;;;;;;;9.69;76.92;95614.84;1987512;29;20065;-58
2023/06/14 01:16:52;;;;;;;6.35;4.15;;;;;;;9.66;77.20;95607.22;2002585;29;20042;-58
2023/06/14 01:18:02;;;;;;;6.05;4.03;;;;;;;9.65;77.30;95616.78;1995568;29;20112;-58
2023/06/14 01:19:05;;;;;;;6.13;4.18;;;;;;;9.65;77.20;95610.72;2006958;29;20482;-58
2023/06/14 01:20:11;;;;;;;9.80;4.60;;;;;;;9.55;76.48;95600.00;2002162;29;20054;-58
2023/06/14 01:21:23;;;;;;;6.72;4.63;;;;;;;9.61;76.32;95610.03;1996061;29;20066;-58
2023/06/14 01:22:26;;;;;;;7.00;4.50;;;;;;;9.60;76.11;95616.16;1997889;29;20051;-58
2023/06/14 01:23:32;;;;;;;7.35;4.35;;;;;;;9.59;76.24;95613.63;2011110;29;20382;-58
2023/06/14 01:24:34;;;;;;;7.35;4.40;;;;;;;9.56;76.13;95603.41;2017492;29;20064;-58
2023/06/14 01:25:36;;;;;;;7.57;4.15;;;;;;;9.56;75.75;95618.97;2017357;29;20098;-58
2023/06/14 01:26:37;;;;;;;9.02;4.70;;;;;;;9.56;75.60;95612.03;2016943;29;20068;-58
2023/06/14 01:27:38;;;;;;;6.75;4.07;;;;;;;9.55;75.48;95612.94;2016998;29;20064;-58
2023/06/14 01:28:39;;;;;;;6.38;4.07;;;;;;;9.54;75.36;95608.66;2009751;29;20088;-58
2023/06/14 01:29:45;;;;;;;8.15;4.38;;;;;;;9.49;75.31;95605.47;1994670;29;20054;-58
2023/06/14 01:30:52;;;;;;;7.70;4.40;;;;;;;9.47;74.83;95596.94;1996863;29;20062;-58
2023/06/14 01:31:53;;;;;;;6.30;4.13;;;;;;;9.48;75.07;95598.59;2003557;29;20058;-58
2023/06/14 01:32:54;;;;;;;10.50;4.35;;;;;;;9.46;74.25;95596.09;1994964;29;20403;-58
2023/06/14 01:33:56;;;;;;;5.57;4.07;;;;;;;9.53;73.88;95606.16;1979652;29;20404;-58
2023/06/14 01:34:58;;;;;;;6.82;4.03;;;;;;;9.50;73.52;95602.78;1995122;29;20058;-58
2023/06/14 01:36:02;;;;;;;7.38;4.22;;;;;;;9.50;72.70;95601.97;2010248;29;20053;-58
2023/06/14 01:37:05;;;;;;;7.97;4.72;;;;;;;9.46;72.36;95609.06;2001967;29;20495;-58
2023/06/14 01:38:07;;;;;;;7.93;4.13;;;;;;;9.42;71.91;95594.56;1994821;29;20050;-58
2023/06/14 01:39:08;;;;;;;9.70;4.85;;;;;;;9.46;71.74;95608.19;2009948;29;20061;-58
2023/06/14 01:40:10;;;;;;;7.63;4.47;;;;;;;9.43;71.77;95606.59;2009873;29;20049;-58
2023/06/14 01:41:11;;;;;;;10.07;4.05;;;;;;;9.43;71.55;95604.00;1987084;29;20392;-58
2023/06/14 01:42:13;;;;;;;7.05;4.78;;;;;;;9.41;71.15;95600.66;1994765;29;20065;-58
2023/06/14 01:43:16;;;;;;;7.10;4.70;;;;;;;9.43;71.39;95610.94;2002521;29;20042;-57
2023/06/14 01:44:17;;;;;;;6.85;4.40;;;;;;;9.45;71.44;95603.94;2017379;29;20052;-57
2023/06/14 01:45:18;;;;;;;8.90;4.72;;;;;;;9.42;71.21;95599.75;2017438;29;20041;-58
2023/06/14 01:46:19;;;;;;;7.28;4.43;;;;;;;9.43;71.08;95604.00;2008700;29;20061;-58
2023/06/14 01:47:21;;;;;;;6.88;4.80;;;;;;;9.40;71.46;95598.97;2002023;29;20061;-57
2023/06/14 01:48:23;;;;;;;5.65;4.10;;;;;;;9.34;71.48;95590.69;2002272;29;20060;-58
2023/06/14 01:49:25;;;;;;;6.90;4.63;;;;;;;9.40;71.52;95613.69;2002551;29;20058;-58
2023/06/14 01:50:32;;;;;;;7.45;4.38;;;;;;;9.38;71.68;95602.56;2009747;29;20049;-57
2023/06/14 01:51:33;;;;;;;6.05;4.20;;;;;;;9.38;72.21;95603.41;2002585;29;20054;-57
2023/06/14 01:52:35;;;;;;;8.32;4.70;;;;;;;9.39;72.85;95604.25;2009598;29;20444;-57
2023/06/14 01:53:37;;;;;;;8.43;5.20;;;;;;;9.40;73.16;95598.13;2025523;29;20052;-57
2023/06/14 01:54:42;;;;;;;7.10;4.45;;;;;;;9.39;73.53;95606.84;2017501;29;20425;-57
2023/06/14 01:55:44;;;;;;;7.18;4.85;;;;;;;9.36;73.99;95600.06;2009797;29;20514;-58
2023/06/14 01:56:45;;;;;;;8.35;4.25;;;;;;;9.35;73.84;95611.31;2017261;29;20048;-58
2023/06/14 01:57:46;;;;;;;6.75;4.40;;;;;;;9.32;73.95;95606.28;2009547;29;20060;-57
2023/06/14 01:58:48;;;;;;;7.43;4.30;;;;;;;9.35;74.41;95607.88;2009549;29;20049;-57
2023/06/14 01:59:49;;;;;;;5.88;4.57;;;;;;;9.33;74.30;95604.53;2001839;29;20058;-58
2023/06/14 02:00:51;;;;;;;12.27;4.90;;;;;;;9.34;74.38;95604.47;2009910;29;20061;-58
2023/06/14 02:01:52;;;;;;;6.07;4.30;;;;;;;9.25;73.38;95594.56;2017316;29;20481;-58
2023/06/14 02:02:53;;;;;;;7.40;4.50;;;;;;;9.33;74.12;95600.22;2009552;29;20042;-58
2023/06/14 02:03:54;;;;;;;7.22;4.75;;;;;;;9.32;73.95;95601.09;2017224;29;20057;-57
2023/06/14 02:04:57;;;;;;;6.93;4.55;;;;;;;9.31;74.05;95601.19;2017497;29;20052;-58
2023/06/14 02:05:58;;;;;;;7.15;4.53;;;;;;;9.21;74.32;95595.59;2017692;29;20393;-58
2023/06/14 02:06:59;;;;;;;7.30;4.70;;;;;;;9.18;74.23;95593.16;2017557;29;20049;-58
2023/06/14 02:08:01;;;;;;;7.10;4.47;;;;;;;9.24;74.50;95608.41;2009152;29;20064;-58
2023/06/14 02:09:02;;;;;;;7.13;4.78;;;;;;;9.23;75.13;95606.75;2009190;29;20483;-57
2023/06/14 02:10:05;;;;;;;7.22;4.72;;;;;;;9.24;76.00;95613.59;2016929;29;20052;-57
2023/06/14 02:11:06;;;;;;;8.88;5.10;;;;;;;9.24;76.13;95613.59;2017626;29;20037;-57
2023/06/14 02:12:08;;;;;;;11.43;4.63;;;;;;;9.22;76.94;95608.50;2025747;29;20048;-57
2023/06/14 02:13:09;;;;;;;7.80;5.22;;;;;;;9.19;77.51;95602.59;2024924;29;20059;-57
2023/06/14 02:14:11;;;;;;;6.95;4.72;;;;;;;9.18;77.84;95612.13;2017261;29;20064;-57
2023/06/14 02:15:21;;;;;;;6.82;4.45;;;;;;;9.17;77.83;95614.81;2009333;29;20429;-58
2023/06/14 02:16:23;;;;;;;14.30;5.40;;;;;;;9.13;77.22;95606.34;2018837;29;20053;-57
2023/06/14 02:17:24;;;;;;;8.00;4.63;;;;;;;9.12;77.69;95611.59;2016638;29;20049;-57
2023/06/14 02:18:26;;;;;;;8.77;5.30;;;;;;;9.10;77.42;95603.88;2009454;29;20401;-57
2023/06/14 02:19:27;;;;;;;8.52;4.93;;;;;;;9.07;77.63;95606.63;2017243;29;20060;-57
2023/06/14 02:20:28;;;;;;;6.90;4.82;;;;;;;8.99;77.38;95599.22;2009731;29;20518;-58
2023/06/14 02:21:29;;;;;;;8.57;5.07;;;;;;;9.04;77.49;95605.03;2017391;29;20052;-57
2023/06/14 02:22:30;;;;;;;9.63;4.75;;;;;;;8.97;77.31;95598.44;2025718;29;20059;-57
2023/06/14 02:23:32;;;;;;;8.20;4.65;;;;;;;9.03;77.22;95603.34;2025228;29;20404;-57
2023/06/14 02:24:33;;;;;;;9.40;4.55;;;;;;;9.02;76.75;95604.25;2025592;29;20401;-58
2023/06/14 02:25:35;;;;;;;7.72;4.68;;;;;;;9.00;76.52;95600.88;2025506;29;20177;-57
2023/06/14 02:26:37;;;;;;;7.70;5.20;;;;;;;8.99;76.36;95607.00;2025513;29;20489;-57
2023/06/14 02:27:39;;;;;;;12.05;4.78;;;;;;;8.97;76.42;95606.22;2009450;29;20118;-58
2023/06/14 02:28:40;;;;;;;6.57;4.53;;;;;;;8.95;76.40;95605.44;2009585;29;20050;-58
2023/06/14 02:29:43;;;;;;;9.40;4.85;;;;;;;8.94;76.45;95605.53;2016918;29;20057;-58
2023/06/14 02:30:45;;;;;;;8.43;5.32;;;;;;;8.93;76.70;95607.28;2016770;29;20061;-57
2023/06/14 02:31:48;;;;;;;6.65;4.50;;;;;;;8.91;76.44;95603.91;2009813;29;20466;-57
2023/06/14 02:32:50;;;;;;;8.02;4.88;;;;;;;8.93;76.75;95602.09;2009757;29;20049;-57
2023/06/14 02:33:51;;;;;;;6.43;4.88;;;;;;;8.92;76.65;95608.19;2017404;29;20057;-57
2023/06/14 02:34:53;;;;;;;8.35;4.80;;;;;;;8.88;76.39;95598.06;2025602;29;20048;-57
2023/06/14 02:35:56;;;;;;;7.35;4.63;;;;;;;8.90;76.53;95606.56;2017319;29;20497;-57
2023/06/14 02:36:57;;;;;;;8.85;4.95;;;;;;;8.89;75.86;95599.72;2017535;29;20421;-57
2023/06/14 02:37:58;;;;;;;10.43;4.45;;;;;;;8.89;75.91;95605.72;2025471;29;20051;-57
2023/06/14 02:38:59;;;;;;;7.43;4.88;;;;;;;8.89;75.44;95607.50;2025575;29;20044;-58
2023/06/14 02:40:00;;;;;;;6.15;4.43;;;;;;;8.87;75.47;95607.56;2025584;29;20037;-58
2023/06/14 02:41:02;;;;;;;6.60;4.18;;;;;;;8.86;74.90;95603.28;2017058;29;20048;-57
2023/06/14 02:42:03;;;;;;;6.28;4.72;;;;;;;8.85;74.28;95614.56;2009502;29;20054;-58
2023/06/14 02:43:04;;;;;;;10.32;5.45;;;;;;;8.83;74.16;95611.22;2016858;29;20056;-58
2023/06/14 02:44:07;;;;;;;6.97;5.05;;;;;;;8.81;73.93;95598.31;2016573;29;20124;-57
2023/06/14 02:45:08;;;;;;;6.35;4.70;;;;;;;8.76;73.81;95595.09;2017375;29;20044;-57
2023/06/14 02:46:09;;;;;;;11.65;4.90;;;;;;;8.81;73.32;95607.84;2025160;29;20460;-58
2023/06/14 02:47:11;;;;;;;7.82;5.20;;;;;;;8.79;73.35;95613.13;2025591;29;20056;-57
2023/06/14 02:48:12;;;;;;;7.78;4.68;;;;;;;8.81;73.19;95600.06;2017322;29;20064;-57
2023/06/14 02:49:14;;;;;;;8.80;5.25;;;;;;;8.81;72.80;95603.50;2017475;29;20048;-58
2023/06/14 02:50:15;;;;;;;8.40;4.65;;;;;;;8.81;72.91;95602.66;2016983;29;20462;-57
2023/06/14 02:51:17;;;;;;;8.93;5.13;;;;;;;8.79;72.84;95600.16;2001462;29;20522;-57
2023/06/14 02:52:18;;;;;;;7.68;4.82;;;;;;;8.82;72.39;95602.59;2001986;29;20060;-57
2023/06/14 02:53:19;;;;;;;8.82;4.35;;;;;;;8.81;72.39;95606.09;2016646;29;20048;-57
2023/06/14 02:54:20;;;;;;;7.28;4.30;;;;;;;8.79;71.96;95602.75;2017143;29;20045;-57
2023/06/14 02:55:21;;;;;;;9.98;5.03;;;;;;;8.78;72.06;95608.00;2017124;29;20061;-57
2023/06/14 02:56:22;;;;;;;10.23;4.97;;;;;;;8.77;71.93;95608.91;2016711;29;20052;-57
2023/06/14 02:57:23;;;;;;;8.32;4.80;;;;;;;8.74;72.36;95598.66;2017195;29;20053;-57
2023/06/14 02:58:25;;;;;;;9.85;4.88;;;;;;;8.75;72.52;95608.13;2017828;29;20110;-57
2023/06/14 02:59:26;;;;;;;9.40;5.40;;;;;;;8.75;72.44;95611.56;2018235;29;20053;-57
2023/06/14 03:00:30;;;;;;;8.35;4.82;;;;;;;8.77;72.64;95606.31;2018649;29;20101;-57
2023/06/14 03:01:34;;;;;;;7.10;4.80;;;;;;;8.77;72.67;95609.75;2010526;29;20057;-57
2023/06/14 03:02:38;;;;;;;7.57;5.15;;;;;;;8.78;72.60;95611.41;2004714;29;20470;-57
2023/06/14 03:03:39;;;;;;;7.05;5.22;;;;;;;8.80;72.68;95611.34;2010533;29;20060;-58
2023/06/14 03:04:43;;;;;;;8.93;4.93;;;;;;;8.79;72.21;95610.53;2018642;29;20056;-56
2023/06/14 03:05:49;;;;;;;7.93;4.90;;;;;;;8.80;71.87;95607.00;2026863;29;20064;-57
2023/06/14 03:06:53;;;;;;;8.57;4.90;;;;;;;8.81;71.38;95611.25;2018385;29;20049;-57
2023/06/14 03:07:55;;;;;;;8.30;5.07;;;;;;;8.83;71.31;95600.84;2011088;29;20470;-58
2023/06/14 03:09:01;;;;;;;7.90;4.65;;;;;;;8.83;71.07;95613.81;2018444;29;20048;-57
2023/06/14 03:10:03;;;;;;;9.38;4.85;;;;;;;8.83;71.00;95609.44;2010879;29;20045;-57
2023/06/14 03:11:08;;;;;;;7.22;4.78;;;;;;;8.79;70.92;95607.94;2011241;29;20179;-58
2023/06/14 03:12:11;;;;;;;9.73;5.07;;;;;;;8.80;70.55;95604.41;2017928;29;20049;-57
2023/06/14 03:13:15;;;;;;;8.30;4.70;;;;;;;8.78;70.62;95608.00;2003079;29;20054;-57
2023/06/14 03:14:18;;;;;;;7.40;4.60;;;;;;;8.76;70.59;95605.47;1996005;29;20054;-57
2023/06/14 03:15:19;;;;;;;8.95;5.20;;;;;;;8.75;70.67;95608.97;1995525;29;20348;-57
2023/06/14 03:16:24;;;;;;;8.02;4.53;;;;;;;8.72;70.75;95613.47;2018394;29;20063;-57
2023/06/14 03:17:29;;;;;;;10.50;4.97;;;;;;;8.72;71.20;95609.13;2002803;29;20054;-57
2023/06/14 03:18:35;;;;;;;7.65;5.30;;;;;;;8.70;71.74;95610.94;1996564;29;20058;-58
2023/06/14 03:19:36;;;;;;;9.60;5.13;;;;;;;8.70;71.95;95607.50;1996684;29;20054;-57
2023/06/14 03:20:38;;;;;;;7.50;4.57;;;;;;;8.71;72.58;95612.59;2003190;29;20062;-57
2023/06/14 03:21:44;;;;;;;10.65;5.00;;;;;;;8.71;73.60;95617.78;2010891;29;20056;-57
2023/06/14 03:22:45;;;;;;;8.57;5.35;;;;;;;8.66;73.32;95614.59;2011057;29;20446;-58
2023/06/14 03:23:48;;;;;;;8.57;4.80;;;;;;;8.70;73.86;95620.44;2003250;29;20161;-57
2023/06/14 03:24:50;;;;;;;8.05;5.25;;;;;;;8.68;74.66;95617.09;2003444;29;20471;-57
2023/06/14 03:25:51;;;;;;;8.02;4.95;;;;;;;8.66;74.72;95621.50;1994872;29;20462;-57
2023/06/14 03:26:53;;;;;;;9.38;5.38;;;;;;;8.66;75.27;95622.34;1995527;29;20054;-57
2023/06/14 03:27:54;;;;;;;7.78;5.35;;;;;;;8.63;75.66;95621.63;2010422;29;20177;-57
2023/06/14 03:28:55;;;;;;;7.65;5.18;;;;;;;8.63;76.22;95624.22;2018104;29;20528;-57
2023/06/14 03:29:57;;;;;;;8.30;5.22;;;;;;;8.62;76.39;95623.38;2018412;29;20057;-57
2023/06/14 03:30:59;;;;;;;7.05;4.47;;;;;;;8.62;76.06;95625.97;2018301;29;20049;-57
2023/06/14 03:32:02;;;;;;;7.28;5.15;;;;;;;8.49;76.20;95612.75;2018096;29;20060;-57
2023/06/14 03:33:17;;;;;;;9.98;4.90;;;;;;;8.58;76.23;95627.00;2012417;29;20441;-56
2023/06/14 03:34:19;;;;;;;7.47;4.85;;;;;;;8.58;76.23;95627.00;2010036;29;20053;-57
2023/06/14 03:35:21;;;;;;;9.52;5.60;;;;;;;8.52;75.30;95614.34;2018315;29;20045;-57
2023/06/14 03:36:23;;;;;;;10.45;5.07;;;;;;;8.61;74.91;95627.72;2018284;29;20068;-57
2023/06/14 03:37:24;;;;;;;8.50;4.90;;;;;;;8.63;74.81;95629.41;2011045;29;20064;-57
2023/06/14 03:38:25;;;;;;;8.73;4.85;;;;;;;8.66;74.36;95635.28;2018213;29;20060;-57
2023/06/14 03:39:27;;;;;;;7.85;4.95;;;;;;;8.69;74.06;95629.13;2010552;29;20142;-57
2023/06/14 03:40:28;;;;;;;9.55;5.10;;;;;;;8.66;73.82;95616.31;2010576;29;20494;-57
2023/06/14 03:41:35;;;;;;;12.60;5.32;;;;;;;8.75;73.70;95631.44;2011457;29;20060;-57
2023/06/14 03:42:36;;;;;;;7.70;4.65;;;;;;;8.83;72.83;95631.94;2010571;29;20073;-57
2023/06/14 03:43:37;;;;;;;9.23;5.05;;;;;;;8.85;72.75;95630.13;2017889;29;20057;-57
2023/06/14 03:44:39;;;;;;;9.27;5.57;;;;;;;8.91;71.76;95624.63;2018075;29;20048;-57
2023/06/14 03:45:40;;;;;;;10.60;5.13;;;;;;;9.00;71.33;95642.31;2010188;29;20070;-57
2023/06/14 03:46:41;;;;;;;8.55;4.93;;;;;;;8.94;71.10;95615.88;2010461;29;20588;-57
2023/06/14 03:47:42;;;;;;;13.07;5.72;;;;;;;9.02;70.60;95637.91;2018079;29;20053;-57
2023/06/14 03:48:43;;;;;;;7.43;4.95;;;;;;;9.05;70.50;95631.75;2010230;29;20513;-55
2023/06/14 03:49:45;;;;;;;7.70;4.72;;;;;;;9.09;70.28;95635.91;2010463;29;20061;-57
2023/06/14 03:50:47;;;;;;;6.80;4.90;;;;;;;9.11;70.45;95630.63;2010429;29;20064;-57
2023/06/14 03:51:50;;;;;;;10.00;4.95;;;;;;;9.15;70.25;95632.19;2018143;29;20125;-57
2023/06/14 03:52:52;;;;;;;7.95;4.85;;;;;;;9.15;70.18;95633.00;2017900;29;20132;-57
2023/06/14 03:53:55;;;;;;;7.18;5.15;;;;;;;9.18;69.75;95629.44;2017742;29;20059;-57
2023/06/14 03:54:59;;;;;;;7.47;4.78;;;;;;;9.21;69.65;95637.06;2010423;29;20500;-57
2023/06/14 03:56:00;;;;;;;8.02;4.65;;;;;;;9.22;69.45;95639.59;1995874;29;20050;-57
2023/06/14 03:57:09;;;;;;;7.20;4.83;;;;;;;9.25;69.15;95641.19;2004648;29;20477;-57
2023/06/14 03:58:10;;;;;;;6.47;4.47;;;;;;;9.26;68.90;95641.09;2010434;29;20292;-58
2023/06/14 03:59:12;;;;;;;7.10;5.13;;;;;;;9.28;69.18;95639.28;2010592;29;20057;-57
2023/06/14 04:00:15;;;;;;;9.20;5.07;;;;;;;9.35;68.80;95645.00;2010375;29;20053;-57
2023/06/14 04:01:16;;;;;;;9.52;5.22;;;;;;;9.41;69.12;95647.31;2018300;29;20049;-57
2023/06/14 04:02:17;;;;;;;7.55;5.25;;;;;;;9.48;68.71;95647.84;2026463;29;20461;-57
2023/06/14 04:03:19;;;;;;;9.60;5.53;;;;;;;9.56;68.93;95647.47;2010088;29;20076;-57
2023/06/14 04:04:21;;;;;;;11.40;5.30;;;;;;;9.60;68.21;95652.44;2005387;29;20550;-57
2023/06/14 04:05:26;;;;;;;10.30;5.18;;;;;;;9.62;67.66;95644.59;2010486;29;20057;-57
2023/06/14 04:06:32;;;;;;;13.45;5.40;;;;;;;9.67;67.43;95646.03;2010453;29;20061;-57
2023/06/14 04:07:39;;;;;;;9.30;6.03;;;;;;;9.71;66.34;95642.38;2018120;29;20052;-57
2023/06/14 04:08:41;;;;;;;8.50;5.00;;;;;;;9.76;66.49;95639.56;2009736;29;20062;-57
2023/06/14 04:09:42;;;;;;;7.05;5.00;;;;;;;9.81;66.33;95649.69;2010489;29;20049;-57
2023/06/14 04:10:43;;;;;;;8.45;5.03;;;;;;;9.88;66.48;95651.09;2018039;29;20437;-57
2023/06/14 04:11:44;;;;;;;9.70;5.28;;;;;;;9.91;65.35;95649.16;2018150;29;20052;-57
2023/06/14 04:12:45;;;;;;;9.38;5.35;;;;;;;9.98;65.71;95651.47;2018045;29;20504;-57
2023/06/14 04:13:47;;;;;;;8.98;5.28;;;;;;;10.02;65.43;95648.63;2017452;29;20060;-57
2023/06/14 04:14:48;;;;;;;9.38;5.30;;;;;;;10.04;65.17;95651.97;2017927;29;20064;-57
2023/06/14 04:15:49;;;;;;;10.98;5.70;;;;;;;10.07;65.46;95651.81;2010598;29;20076;-57
2023/06/14 04:16:55;;;;;;;11.98;5.10;;;;;;;10.04;64.72;95646.78;2018520;29;20124;-57
2023/06/14 04:17:57;;;;;;;9.07;5.57;;;;;;;10.14;65.18;95658.38;2010276;29;20045;-58
2023/06/14 04:18:58;;;;;;;9.07;5.38;;;;;;;10.19;64.99;95657.34;2010550;29;20058;-57
2023/06/14 04:20:00;;;;;;;12.00;5.10;;;;;;;10.24;64.75;95665.72;2010475;29;20510;-57
2023/06/14 04:21:01;;;;;;;10.20;5.95;;;;;;;10.27;65.29;95655.19;2010253;29;20049;-56
2023/06/14 04:22:03;;;;;;;8.30;5.53;;;;;;;10.30;64.87;95655.88;2017637;29;20441;-57
2023/06/14 04:23:17;;;;;;;10.73;6.13;;;;;;;10.27;65.29;95650.00;2002529;29;20050;-57
2023/06/14 04:24:19;;;;;;;11.18;5.95;;;;;;;10.36;65.32;95655.56;1989301;29;20102;-57
2023/06/14 04:25:25;;;;;;;8.88;5.30;;;;;;;10.41;64.84;95657.09;1989868;29;20520;-57
2023/06/14 04:26:33;;;;;;;6.90;5.05;;;;;;;10.44;64.88;95665.56;2010471;29;20088;-57
2023/06/14 04:27:36;;;;;;;11.88;5.78;;;;;;;10.48;64.77;95661.88;2011006;29;20042;-57
2023/06/14 04:28:40;;;;;;;9.02;5.57;;;;;;;10.53;64.05;95664.22;2018001;29;20045;-57
2023/06/14 04:29:43;;;;;;;9.25;5.35;;;;;;;10.57;64.23;95669.19;2016896;29;20413;-57
2023/06/14 04:30:47;;;;;;;9.05;5.35;;;;;;;10.63;63.25;95668.03;2010643;29;20369;-57
2023/06/14 04:31:51;;;;;;;10.25;5.60;;;;;;;10.68;62.97;95668.63;2010369;29;20057;-57
2023/06/14 04:32:53;;;;;;;8.55;5.90;;;;;;;10.73;62.42;95671.81;2017193;29;20068;-57
2023/06/14 04:33:55;;;;;;;8.95;5.47;;;;;;;10.76;61.67;95668.22;2017196;29;20068;-57
2023/06/14 04:34:59;;;;;;;8.68;5.35;;;;;;;10.79;61.42;95660.25;1995464;29;20047;-57
2023/06/14 04:36:01;;;;;;;8.23;5.35;;;;;;;10.90;61.02;95670.06;2010078;29;20049;-56
2023/06/14 04:37:02;;;;;;;9.40;5.47;;;;;;;10.93;60.43;95664.72;2009918;29;20049;-57
2023/06/14 04:38:10;;;;;;;10.20;5.35;;;;;;;11.00;60.51;95668.66;2010502;29;20049;-57
2023/06/14 04:39:13;;;;;;;9.32;5.63;;;;;;;11.05;59.73;95674.47;2010250;29;20069;-57
2023/06/14 04:40:14;;;;;;;8.77;5.53;;;;;;;11.09;61.00;95670.75;2002846;29;20541;-57
2023/06/14 04:41:16;;;;;;;8.65;5.85;;;;;;;11.13;61.00;95668.84;2002668;29;20050;-57
2023/06/14 04:42:20;;;;;;;9.07;5.28;;;;;;;11.19;59.72;95671.09;2017131;29;20074;-57
2023/06/14 04:43:27;;;;;;;10.38;5.95;;;;;;;11.22;59.93;95671.75;2009793;29;20057;-57
2023/06/14 04:44:31;;;;;;;9.80;5.55;;;;;;;11.29;59.78;95674.03;2010687;29;20064;-57
2023/06/14 04:45:33;;;;;;;11.32;5.90;;;;;;;11.31;59.14;95675.63;2002509;29;20085;-57
2023/06/14 04:46:43;;;;;;;10.98;5.82;;;;;;;11.37;58.97;95679.66;2002616;29;20060;-57
2023/06/14 04:47:46;;;;;;;8.27;5.05;;;;;;;11.42;58.82;95682.84;2003762;29;20133;-57
2023/06/14 04:48:47;;;;;;;10.98;5.60;;;;;;;11.44;59.37;95678.38;2010084;29;20060;-57
2023/06/14 04:49:50;;;;;;;12.48;5.53;;;;;;;11.47;58.30;95681.66;2002259;29;20076;-57
2023/06/14 04:50:52;;;;;;;9.90;5.57;;;;;;;11.53;58.85;95685.69;2017268;29;20060;-57
2023/06/14 04:51:59;;;;;;;8.27;5.15;;;;;;;11.55;57.70;95688.22;2010107;29;20049;-57
2023/06/14 04:53:02;;;;;;;9.35;5.13;;;;;;;11.57;58.57;95681.13;1996643;29;20058;-57
2023/06/14 04:54:04;;;;;;;9.93;6.28;;;;;;;11.64;59.00;95687.69;1994865;29;20054;-57
2023/06/14 04:55:06;;;;;;;12.02;5.78;;;;;;;11.69;58.50;95696.91;2002520;29;20053;-57
2023/06/14 04:56:07;;;;;;;11.02;5.53;;;;;;;11.75;57.59;95689.66;2009802;29;20060;-57
2023/06/14 04:57:14;;;;;;;8.70;4.93;;;;;;;11.72;57.50;95688.06;2010386;29;20124;-58